Time;durP1;ratioP1;P1;durP2;ratioP2;P2;SDS_P1;SDS_P2;PMS_P1;PMS_P2;Temp;Humidity;BMP_temperature;BMP_pressure;BME280_temperature;BME280_humidity;BME280_pressure;Samples;Min_cycle;Max_cycle;Signal;HPM_P1;HPM_P2
2022/02/12 00:00:08;;;;;;;1.90;1.13;;;2.80;99.90;;;;;;5077470;28;20780;-58
2022/02/12 00:02:34;;;;;;;1.77;1.13;;;2.70;99.90;;;;;;5077059;28;20491;-59
2022/02/12 00:05:01;;;;;;;4.40;2.10;;;2.70;99.90;;;;;;5077014;28;20446;-58
2022/02/12 00:07:28;;;;;;;4.10;1.30;;;2.70;99.90;;;;;;5077241;28;20927;-59
2022/02/12 00:09:54;;;;;;;3.87;1.40;;;2.70;99.90;;;;;;5077392;28;20450;-56
2022/02/12 00:12:21;;;;;;;4.87;1.70;;;2.70;99.90;;;;;;5077167;28;20476;-57
2022/02/12 00:14:50;;;;;;;2.50;1.33;;;2.70;99.90;;;;;;5076959;28;20512;-60
2022/02/12 00:17:16;;;;;;;3.13;1.33;;;2.80;99.90;;;;;;5077018;28;20466;-61
2022/02/12 00:19:43;;;;;;;2.93;1.00;;;2.70;99.90;;;;;;5077045;28;20431;-59
2022/02/12 00:22:10;;;;;;;5.23;1.93;;;2.60;99.90;;;;;;5076820;28;20495;-55
2022/02/12 00:24:37;;;;;;;3.73;3.00;;;2.60;99.90;;;;;;5076834;28;20496;-57
2022/02/12 00:27:04;;;;;;;5.70;1.90;;;2.50;99.90;;;;;;5076910;28;20798;-61
2022/02/12 00:29:30;;;;;;;3.03;1.60;;;2.60;99.90;;;;;;5077169;28;20508;-59
2022/02/12 00:31:58;;;;;;;4.80;1.67;;;2.60;99.90;;;;;;5076716;28;20443;-60
2022/02/12 00:34:25;;;;;;;6.30;1.47;;;2.60;99.90;;;;;;5076813;28;20439;-54
2022/02/12 00:36:52;;;;;;;2.80;1.20;;;2.60;99.90;;;;;;5076784;28;20516;-61
2022/02/12 00:39:18;;;;;;;11.40;1.70;;;2.60;99.90;;;;;;5076657;28;20528;-60
2022/02/12 00:41:45;;;;;;;4.83;1.67;;;2.60;99.90;;;;;;5076853;28;20822;-59
2022/02/12 00:44:12;;;;;;;2.17;1.17;;;2.50;99.90;;;;;;5076528;28;20796;-62
2022/02/12 00:46:39;;;;;;;1.50;1.40;;;2.50;99.90;;;;;;5076902;28;20455;-59
2022/02/12 00:49:07;;;;;;;4.87;2.20;;;2.50;99.90;;;;;;5076638;28;20505;-61
2022/02/12 00:51:35;;;;;;;5.93;1.40;;;2.40;99.90;;;;;;5076522;28;20446;-59
2022/02/12 00:54:04;;;;;;;6.43;1.60;;;2.50;99.90;;;;;;5076285;28;20546;-58
2022/02/12 00:56:31;;;;;;;12.43;1.40;;;2.50;99.90;;;;;;5076286;28;20446;-57
2022/02/12 00:58:58;;;;;;;3.00;1.80;;;2.50;99.90;;;;;;5076406;28;20500;-58
2022/02/12 01:01:25;;;;;;;1.83;1.47;;;2.50;99.90;;;;;;5076404;28;20503;-60
2022/02/12 01:03:51;;;;;;;1.50;1.37;;;2.50;99.90;;;;;;5076348;28;20495;-59
2022/02/12 01:06:19;;;;;;;1.70;1.20;;;2.50;99.90;;;;;;5076260;28;20455;-55
2022/02/12 01:08:46;;;;;;;2.03;1.17;;;2.40;99.90;;;;;;5075955;28;20466;-62
2022/02/12 01:11:13;;;;;;;5.27;1.50;;;2.40;99.90;;;;;;5075787;28;20926;-58
2022/02/12 01:13:40;;;;;;;5.07;1.17;;;2.40;99.90;;;;;;5075828;28;20547;-58
2022/02/12 01:16:07;;;;;;;1.83;1.20;;;2.30;99.90;;;;;;5075025;28;20465;-58
2022/02/12 01:18:34;;;;;;;7.13;1.27;;;2.20;99.90;;;;;;5076025;28;20482;-56
2022/02/12 01:21:01;;;;;;;4.90;1.47;;;2.20;99.90;;;;;;5076995;28;20900;-62
2022/02/12 01:23:29;;;;;;;2.20;1.10;;;2.20;99.90;;;;;;5075674;28;20551;-60
2022/02/12 01:25:55;;;;;;;2.33;1.60;;;2.20;99.90;;;;;;5075690;28;20446;-59
2022/02/12 01:28:22;;;;;;;2.17;1.50;;;2.20;99.90;;;;;;5075778;28;20458;-59
2022/02/12 01:30:49;;;;;;;6.70;1.43;;;2.20;99.90;;;;;;5075814;28;20447;-63
2022/02/12 01:33:16;;;;;;;6.07;2.53;;;2.10;99.90;;;;;;5075477;28;20485;-59
2022/02/12 01:35:43;;;;;;;2.83;1.60;;;2.10;99.90;;;;;;5075830;28;20449;-66
2022/02/12 01:38:10;;;;;;;3.40;1.97;;;2.10;99.90;;;;;;5075714;28;20470;-60
2022/02/12 01:40:38;;;;;;;3.50;1.50;;;2.10;99.90;;;;;;5075665;28;20454;-59
2022/02/12 01:43:07;;;;;;;4.03;2.47;;;2.00;99.90;;;;;;5075042;28;21021;-61
2022/02/12 01:45:35;;;;;;;3.73;1.97;;;2.00;99.90;;;;;;5075494;28;20440;-59
2022/02/12 01:48:02;;;;;;;4.77;1.57;;;2.00;99.90;;;;;;5075029;28;20474;-60
2022/02/12 01:50:29;;;;;;;4.13;2.73;;;2.00;99.90;;;;;;5075283;28;20459;-57
2022/02/12 01:52:55;;;;;;;2.53;2.00;;;2.00;99.90;;;;;;5075137;28;20512;-60
2022/02/12 01:55:22;;;;;;;2.37;1.47;;;2.00;99.90;;;;;;5075504;28;20431;-57
2022/02/12 01:57:50;;;;;;;3.20;2.00;;;2.00;99.90;;;;;;5075245;28;20476;-59
2022/02/12 02:00:19;;;;;;;1.83;1.23;;;2.00;99.90;;;;;;5075087;28;20901;-59
2022/02/12 02:02:46;;;;;;;6.20;2.43;;;1.90;99.90;;;;;;5075079;28;20478;-56
2022/02/12 02:05:13;;;;;;;5.70;1.50;;;2.00;99.90;;;;;;5075178;28;20502;-56
2022/02/12 02:07:41;;;;;;;2.37;1.40;;;2.00;99.90;;;;;;5075255;28;20500;-59
2022/02/12 02:10:09;;;;;;;1.30;1.00;;;2.00;99.90;;;;;;5075228;28;20473;-58
2022/02/12 02:12:36;;;;;;;5.47;2.03;;;1.90;99.90;;;;;;5075571;28;20442;-59
2022/02/12 02:15:05;;;;;;;2.10;1.50;;;2.00;99.90;;;;;;5074739;28;20471;-59
2022/02/12 02:17:32;;;;;;;4.30;1.97;;;1.90;99.90;;;;;;5075102;28;20829;-59
2022/02/12 02:19:59;;;;;;;2.10;1.40;;;1.90;99.90;;;;;;5075079;28;20455;-59
2022/02/12 02:22:29;;;;;;;7.63;1.67;;;1.90;99.90;;;;;;5074885;28;20524;-58
2022/02/12 02:24:57;;;;;;;3.20;1.60;;;1.90;99.90;;;;;;5075158;28;20431;-58
2022/02/12 02:27:28;;;;;;;3.00;1.77;;;2.00;99.90;;;;;;5074756;28;20941;-56
2022/02/12 02:29:56;;;;;;;5.07;1.90;;;1.90;99.90;;;;;;5075051;28;20873;-58
2022/02/12 02:32:23;;;;;;;1.77;1.67;;;1.90;99.90;;;;;;5074968;28;20461;-59
2022/02/12 02:34:51;;;;;;;3.60;1.43;;;1.90;99.90;;;;;;5075085;28;20505;-61
2022/02/12 02:37:18;;;;;;;3.10;1.50;;;1.90;99.90;;;;;;5074986;28;20504;-58
2022/02/12 02:39:44;;;;;;;3.67;1.83;;;1.90;99.90;;;;;;5074890;28;20548;-56
2022/02/12 02:42:13;;;;;;;2.40;1.90;;;1.80;99.90;;;;;;5074789;28;20447;-60
2022/02/12 02:44:40;;;;;;;3.00;1.63;;;1.90;99.90;;;;;;5074975;28;20529;-59
2022/02/12 02:49:47;;;;;;;5.70;1.80;;;1.90;99.90;;;;;;5074171;28;20958;-59
2022/02/12 02:57:46;;;;;;;1.50;1.20;;;1.80;99.90;;;;;;5074503;28;20431;-58
2022/02/12 03:00:14;;;;;;;2.20;1.93;;;1.70;99.90;;;;;;5074342;28;21009;-56
2022/02/12 03:02:41;;;;;;;3.83;2.47;;;1.70;99.90;;;;;;5074752;28;20998;-61
2022/02/12 03:05:08;;;;;;;3.60;1.87;;;1.60;99.90;;;;;;5074416;28;20980;-58
2022/02/12 03:07:34;;;;;;;4.17;2.00;;;1.70;99.90;;;;;;5074325;28;20927;-59
2022/02/12 03:10:01;;;;;;;5.23;1.90;;;1.70;99.90;;;;;;5074454;28;20510;-53
2022/02/12 03:12:28;;;;;;;12.63;2.53;;;1.60;99.90;;;;;;5074745;28;20442;-60
2022/02/12 03:14:56;;;;;;;3.40;1.93;;;1.60;99.90;;;;;;5074078;28;20539;-59
2022/02/12 03:17:23;;;;;;;3.37;2.00;;;1.60;99.90;;;;;;5074533;28;20500;-55
2022/02/12 03:19:49;;;;;;;4.40;2.47;;;1.60;99.90;;;;;;5074990;28;20533;-60
2022/02/12 03:22:16;;;;;;;4.50;2.50;;;1.60;99.90;;;;;;5074377;28;20458;-60
2022/02/12 03:24:42;;;;;;;4.43;2.23;;;1.60;99.90;;;;;;5074119;28;20943;-62
2022/02/12 03:27:09;;;;;;;3.93;2.03;;;1.60;99.90;;;;;;5074078;28;20755;-61
2022/02/12 03:29:36;;;;;;;3.47;1.93;;;1.50;99.90;;;;;;5074100;28;20523;-59
2022/02/12 03:32:04;;;;;;;3.70;1.80;;;1.50;99.90;;;;;;5074129;28;20914;-57
2022/02/12 03:34:31;;;;;;;6.10;1.83;;;1.50;99.90;;;;;;5074093;28;20463;-64
2022/02/12 03:36:58;;;;;;;1.50;1.40;;;1.40;99.90;;;;;;5075103;28;20508;-63
2022/02/12 03:39:24;;;;;;;3.40;2.20;;;1.40;99.90;;;;;;5076816;28;20467;-61
2022/02/12 03:41:52;;;;;;;2.83;2.10;;;1.40;99.90;;;;;;5077797;28;20454;-56
2022/02/12 03:44:19;;;;;;;2.50;2.00;;;1.40;99.90;;;;;;5077675;28;20497;-59
2022/02/12 03:46:46;;;;;;;12.20;2.70;;;1.30;99.90;;;;;;5077607;28;20473;-58
2022/02/12 03:49:14;;;;;;;7.03;2.17;;;1.30;99.90;;;;;;5077490;28;20810;-59
2022/02/12 03:51:40;;;;;;;2.50;1.63;;;1.30;99.90;;;;;;5077738;28;20453;-59
2022/02/12 03:54:07;;;;;;;2.87;1.73;;;1.30;99.90;;;;;;5077809;28;20520;-56
2022/02/12 03:56:33;;;;;;;4.50;2.03;;;1.30;99.90;;;;;;5077620;28;20481;-58
2022/02/12 03:59:00;;;;;;;2.57;1.50;;;1.20;99.90;;;;;;5077300;28;20447;-59
2022/02/12 04:01:27;;;;;;;5.03;1.73;;;1.20;99.90;;;;;;5077482;28;20508;-58
2022/02/12 04:03:53;;;;;;;4.70;1.80;;;1.20;99.90;;;;;;5077198;28;20482;-59
2022/02/12 04:06:21;;;;;;;4.30;2.33;;;1.20;99.90;;;;;;5077266;28;20847;-58
2022/02/12 04:08:48;;;;;;;5.63;2.43;;;1.10;99.90;;;;;;5082635;28;20450;-40
2022/02/12 04:11:15;;;;;;;5.13;1.57;;;1.10;99.90;;;;;;5101046;28;20415;-39
2022/02/12 04:13:42;;;;;;;2.47;1.77;;;1.10;99.90;;;;;;5100933;28;20427;-40
2022/02/12 04:16:10;;;;;;;2.43;2.10;;;1.10;99.90;;;;;;5100987;28;20445;-38
2022/02/12 04:18:37;;;;;;;8.63;2.33;;;1.10;99.90;;;;;;5100966;28;20437;-39
2022/02/12 04:21:04;;;;;;;6.33;1.90;;;1.10;99.90;;;;;;5100934;28;20426;-37
2022/02/12 04:23:32;;;;;;;5.83;2.27;;;1.10;99.90;;;;;;5100839;28;20447;-36
2022/02/12 04:26:01;;;;;;;3.47;2.37;;;1.10;99.90;;;;;;5100771;28;20467;-38
2022/02/12 04:28:30;;;;;;;7.43;3.20;;;1.20;99.90;;;;;;5100713;28;20403;-41
2022/02/12 04:30:57;;;;;;;6.83;2.27;;;1.20;99.90;;;;;;5100734;28;20415;-38
2022/02/12 04:33:23;;;;;;;4.00;2.20;;;1.20;99.90;;;;;;5100730;28;20415;-41
2022/02/12 04:35:50;;;;;;;5.70;2.20;;;1.20;99.90;;;;;;5100520;28;20446;-38
2022/02/12 04:38:19;;;;;;;4.40;2.23;;;1.10;99.90;;;;;;5100629;28;20423;-39
2022/02/12 04:40:47;;;;;;;10.80;2.20;;;1.10;99.90;;;;;;5100460;28;20461;-41
2022/02/12 04:43:16;;;;;;;2.70;2.17;;;1.10;99.90;;;;;;5100396;28;20439;-35
2022/02/12 04:45:42;;;;;;;3.67;2.20;;;1.00;99.90;;;;;;5100343;28;20450;-37
2022/02/12 04:48:09;;;;;;;4.10;2.83;;;1.00;99.90;;;;;;5100354;28;20450;-35
2022/02/12 04:50:37;;;;;;;1.73;1.63;;;1.00;99.90;;;;;;5100106;28;20442;-37
2022/02/12 04:53:04;;;;;;;4.70;3.20;;;1.00;99.90;;;;;;5100252;28;20425;-36
2022/02/12 04:55:33;;;;;;;5.70;2.37;;;1.00;99.90;;;;;;5100210;28;20470;-37
2022/02/12 04:58:01;;;;;;;10.03;2.53;;;0.90;99.90;;;;;;5100075;28;20425;-37
2022/02/12 05:00:27;;;;;;;3.67;1.80;;;0.90;99.90;;;;;;5099958;28;20442;-40
2022/02/12 05:02:54;;;;;;;2.60;1.60;;;0.90;99.90;;;;;;5099857;28;20461;-39
2022/02/12 05:05:21;;;;;;;7.33;2.40;;;0.90;99.90;;;;;;5099801;28;20434;-36
2022/02/12 05:07:47;;;;;;;3.83;1.80;;;0.90;99.90;;;;;;5099991;28;20411;-37
2022/02/12 05:10:14;;;;;;;2.60;1.70;;;0.90;99.90;;;;;;5099931;28;20465;-40
2022/02/12 05:12:41;;;;;;;4.93;2.10;;;0.90;99.90;;;;;;5099852;28;20454;-39
2022/02/12 05:15:13;;;;;;;3.67;2.00;;;0.90;99.90;;;;;;5099665;28;20459;-41
2022/02/12 05:17:39;;;;;;;3.20;2.13;;;0.80;99.90;;;;;;5099771;28;20447;-38
2022/02/12 05:20:07;;;;;;;6.60;2.83;;;0.80;99.90;;;;;;5099610;28;20450;-36
2022/02/12 05:22:34;;;;;;;6.83;3.50;;;0.80;99.90;;;;;;5099729;28;20403;-39
2022/02/12 05:25:00;;;;;;;2.43;2.17;;;0.80;99.90;;;;;;5099426;28;20512;-37
2022/02/12 05:27:28;;;;;;;3.37;3.10;;;0.80;99.90;;;;;;5099604;28;20411;-37
2022/02/12 05:29:55;;;;;;;1.77;1.43;;;0.70;99.90;;;;;;5099330;28;20503;-37
2022/02/12 05:32:25;;;;;;;7.33;3.87;;;0.80;99.90;;;;;;5099369;28;20420;-38
2022/02/12 05:34:51;;;;;;;2.10;1.93;;;0.80;99.90;;;;;;5099351;28;20410;-41
2022/02/12 05:37:18;;;;;;;4.07;2.57;;;0.80;99.90;;;;;;5099363;28;20407;-40
2022/02/12 05:39:47;;;;;;;4.47;1.90;;;0.70;99.90;;;;;;5099255;28;20418;-38
2022/02/12 05:42:13;;;;;;;3.27;2.97;;;0.70;99.90;;;;;;5099285;28;20431;-38
2022/02/12 05:44:42;;;;;;;4.33;2.63;;;0.70;99.90;;;;;;5099184;28;20459;-37
2022/02/12 05:47:08;;;;;;;6.23;2.17;;;0.60;99.90;;;;;;5099208;28;20412;-38
2022/02/12 05:49:36;;;;;;;2.97;2.13;;;0.70;99.90;;;;;;5099177;28;20418;-41
2022/02/12 05:52:04;;;;;;;5.40;3.37;;;0.60;99.90;;;;;;5099158;28;20447;-37
2022/02/12 05:54:31;;;;;;;3.53;1.87;;;0.60;99.90;;;;;;5099219;28;20407;-37
2022/02/12 05:56:57;;;;;;;4.50;2.67;;;0.60;99.90;;;;;;5099094;28;20445;-39
2022/02/12 05:59:24;;;;;;;4.27;1.80;;;0.60;99.90;;;;;;5099144;28;20435;-38
2022/02/12 06:01:51;;;;;;;6.50;2.90;;;0.70;99.90;;;;;;5098447;28;20408;-37
2022/02/12 06:04:18;;;;;;;5.30;2.63;;;0.70;99.90;;;;;;5098904;28;20542;-38
2022/02/12 06:06:47;;;;;;;8.17;2.67;;;0.70;99.90;;;;;;5098848;28;20464;-38
2022/02/12 06:09:14;;;;;;;8.20;2.03;;;0.60;99.90;;;;;;5098982;28;20445;-37
2022/02/12 06:11:42;;;;;;;6.27;2.40;;;0.60;99.90;;;;;;5098778;28;20496;-38
2022/02/12 06:14:11;;;;;;;3.13;2.57;;;0.60;99.90;;;;;;5098835;28;20435;-36
2022/02/12 06:16:39;;;;;;;5.10;3.00;;;0.70;99.90;;;;;;5098803;28;20435;-37
2022/02/12 06:19:05;;;;;;;3.50;2.57;;;0.70;99.90;;;;;;5098885;28;20430;-40
2022/02/12 06:21:32;;;;;;;5.67;2.57;;;0.70;99.90;;;;;;5098774;28;20696;-39
2022/02/12 06:24:00;;;;;;;6.80;2.67;;;0.70;99.90;;;;;;5098720;28;20487;-37
2022/02/12 06:26:29;;;;;;;3.93;3.00;;;0.60;99.90;;;;;;5098555;28;20489;-40
2022/02/12 06:28:56;;;;;;;4.63;2.43;;;0.60;99.90;;;;;;5098727;28;20456;-40
2022/02/12 06:31:23;;;;;;;4.17;3.77;;;0.60;99.90;;;;;;5098720;28;20464;-37
2022/02/12 06:33:52;;;;;;;2.33;1.50;;;0.60;99.90;;;;;;5098555;28;20411;-42
2022/02/12 06:36:19;;;;;;;3.53;2.00;;;0.60;99.90;;;;;;5098608;28;20443;-38
2022/02/12 06:38:45;;;;;;;10.57;2.73;;;0.60;99.90;;;;;;5098655;28;20460;-38
2022/02/12 06:41:15;;;;;;;9.97;3.17;;;0.60;99.90;;;;;;5098481;28;20439;-36
2022/02/12 06:43:44;;;;;;;3.67;3.37;;;0.50;99.90;;;;;;5098458;28;20454;-38
2022/02/12 06:46:11;;;;;;;11.20;3.30;;;0.50;99.90;;;;;;5098471;28;20439;-36
2022/02/12 06:48:39;;;;;;;4.27;3.10;;;0.50;99.90;;;;;;5098678;28;20478;-37
2022/02/12 06:51:05;;;;;;;5.07;2.03;;;0.50;99.90;;;;;;5098308;28;20492;-39
2022/02/12 06:53:33;;;;;;;8.97;4.27;;;0.40;99.90;;;;;;5098496;28;20453;-39
2022/02/12 06:56:00;;;;;;;4.83;2.80;;;0.50;99.90;;;;;;5098371;28;20461;-42
2022/02/12 06:58:29;;;;;;;3.13;2.30;;;0.50;99.90;;;;;;5098430;28;20437;-39
2022/02/12 07:00:57;;;;;;;3.53;2.27;;;0.50;99.90;;;;;;5098357;28;20469;-42
2022/02/12 07:03:25;;;;;;;3.47;2.17;;;0.50;99.90;;;;;;5098291;28;20455;-37
2022/02/12 07:05:55;;;;;;;5.67;1.87;;;0.50;99.90;;;;;;5098238;28;20442;-37
2022/02/12 07:08:22;;;;;;;5.07;3.23;;;0.50;99.90;;;;;;5098359;28;20415;-40
2022/02/12 07:10:48;;;;;;;4.80;2.70;;;0.50;99.90;;;;;;5098128;28;20457;-40
2022/02/12 07:13:15;;;;;;;3.83;2.40;;;0.50;99.90;;;;;;5099025;28;20407;-38
2022/02/12 07:15:43;;;;;;;4.73;1.93;;;0.60;99.90;;;;;;5101963;28;20439;-40
2022/02/12 07:18:12;;;;;;;5.23;2.43;;;0.60;99.90;;;;;;5101999;28;20441;-37
2022/02/12 07:20:40;;;;;;;5.20;2.37;;;0.60;99.90;;;;;;5101943;28;20435;-37
2022/02/12 07:23:07;;;;;;;5.03;2.97;;;0.70;99.90;;;;;;5101998;28;20415;-39
2022/02/12 07:25:34;;;;;;;10.93;2.50;;;0.60;99.90;;;;;;5101834;28;20450;-40
2022/02/12 07:28:02;;;;;;;6.97;3.23;;;0.60;99.90;;;;;;5101748;28;20457;-40
2022/02/12 07:30:31;;;;;;;4.30;2.60;;;0.60;99.90;;;;;;5101677;28;20427;-39
2022/02/12 07:33:00;;;;;;;7.80;2.97;;;0.60;99.90;;;;;;5101709;28;20434;-40
2022/02/12 07:35:27;;;;;;;3.63;2.37;;;0.70;99.90;;;;;;5101619;28;20419;-36
2022/02/12 07:37:54;;;;;;;5.23;3.00;;;0.70;99.90;;;;;;5101629;28;20444;-37
2022/02/12 07:40:21;;;;;;;7.43;2.90;;;0.70;99.90;;;;;;5101613;28;20484;-42
2022/02/12 07:42:51;;;;;;;6.13;3.77;;;0.70;99.90;;;;;;5101375;28;20419;-41
2022/02/12 07:45:17;;;;;;;7.03;3.07;;;0.80;99.90;;;;;;5101393;28;20442;-44
2022/02/12 07:47:45;;;;;;;5.13;2.90;;;0.80;99.90;;;;;;5101396;28;20464;-39
2022/02/12 07:50:15;;;;;;;4.90;2.93;;;0.80;99.90;;;;;;5101260;28;20453;-38
2022/02/12 07:52:43;;;;;;;3.60;2.40;;;0.80;99.90;;;;;;5101342;28;20469;-38
2022/02/12 07:55:11;;;;;;;6.97;3.60;;;0.80;99.90;;;;;;5101172;28;20411;-38
2022/02/12 07:57:38;;;;;;;4.00;3.00;;;0.80;99.90;;;;;;5101235;28;20451;-38
2022/02/12 08:00:05;;;;;;;4.33;2.50;;;0.80;99.90;;;;;;5101136;28;20449;-40
2022/02/12 08:02:32;;;;;;;6.03;4.10;;;0.80;99.90;;;;;;5101047;28;20450;-37
2022/02/12 08:04:59;;;;;;;4.30;2.50;;;0.90;99.90;;;;;;5100964;28;20446;-38
2022/02/12 08:07:29;;;;;;;20.33;3.87;;;0.90;99.90;;;;;;5101012;28;20473;-38
2022/02/12 08:09:56;;;;;;;4.13;2.63;;;1.00;99.90;;;;;;5100930;28;20423;-37
2022/02/12 08:12:22;;;;;;;5.63;3.10;;;1.10;99.90;;;;;;5100868;28;20463;-36
2022/02/12 08:14:51;;;;;;;7.17;4.70;;;1.10;99.90;;;;;;5100924;28;20438;-39
2022/02/12 08:17:19;;;;;;;17.93;4.70;;;1.20;99.90;;;;;;5100874;28;20224;-40
2022/02/12 08:19:47;;;;;;;5.10;2.57;;;1.20;99.90;;;;;;5100784;28;20434;-38
2022/02/12 08:22:14;;;;;;;8.67;5.60;;;1.20;99.90;;;;;;5100670;28;20439;-39
2022/02/12 08:24:43;;;;;;;9.60;2.87;;;1.30;99.90;;;;;;5100232;28;20445;-38
2022/02/12 08:27:13;;;;;;;3.67;2.03;;;1.40;99.90;;;;;;5100656;28;20438;-38
2022/02/12 08:29:44;;;;;;;4.03;2.50;;;1.40;99.90;;;;;;5100626;28;20435;-39
2022/02/12 08:32:13;;;;;;;8.43;3.07;;;1.50;99.90;;;;;;5100571;28;20450;-37
2022/02/12 08:34:42;;;;;;;12.17;3.50;;;1.60;99.90;;;;;;5100428;28;20440;-39
2022/02/12 08:37:08;;;;;;;4.40;2.50;;;1.60;99.90;;;;;;5100343;28;20534;-36
2022/02/12 08:39:35;;;;;;;5.67;3.10;;;1.70;99.90;;;;;;5100422;28;20419;-40
2022/02/12 08:42:04;;;;;;;3.90;3.20;;;1.70;99.90;;;;;;5100368;28;20451;-37
2022/02/12 08:44:30;;;;;;;13.27;4.43;;;1.80;99.90;;;;;;5100328;28;20510;-36
2022/02/12 08:46:57;;;;;;;7.80;4.10;;;1.90;99.90;;;;;;5100098;28;20465;-39
2022/02/12 08:49:28;;;;;;;4.40;2.20;;;2.00;99.90;;;;;;5100356;28;20415;-39
2022/02/12 08:51:55;;;;;;;4.10;3.00;;;2.00;99.90;;;;;;5100115;28;20486;-42
2022/02/12 08:54:22;;;;;;;3.80;2.37;;;2.10;99.90;;;;;;5100067;28;20430;-40
2022/02/12 08:56:49;;;;;;;7.60;4.17;;;2.20;99.90;;;;;;5099825;28;20449;-37
2022/02/12 08:59:17;;;;;;;4.90;3.50;;;2.20;99.90;;;;;;5099934;28;20427;-37
2022/02/12 09:01:44;;;;;;;7.73;2.90;;;2.30;99.90;;;;;;5099836;28;20428;-37
2022/02/12 09:04:12;;;;;;;3.43;2.33;;;2.30;99.90;;;;;;5099639;28;20403;-39
2022/02/12 09:06:40;;;;;;;5.47;2.47;;;2.30;99.90;;;;;;5099535;28;20427;-40
2022/02/12 09:09:10;;;;;;;6.77;2.63;;;2.40;99.90;;;;;;5099821;28;20438;-39
2022/02/12 09:11:38;;;;;;;2.50;1.87;;;2.50;99.90;;;;;;5099581;28;20422;-44
2022/02/12 09:14:10;;;;;;;5.40;2.50;;;2.60;99.90;;;;;;5099613;28;20457;-37
2022/02/12 09:16:38;;;;;;;17.53;3.57;;;2.70;99.90;;;;;;5099835;28;20414;-38
2022/02/12 09:19:06;;;;;;;4.07;2.50;;;2.90;99.90;;;;;;5099718;28;20462;-35
2022/02/12 09:21:33;;;;;;;3.03;2.20;;;2.90;99.90;;;;;;5099605;28;20408;-37
2022/02/12 09:24:00;;;;;;;5.50;2.83;;;3.00;99.90;;;;;;5099688;28;20428;-39
2022/02/12 09:26:30;;;;;;;3.03;2.73;;;3.20;99.90;;;;;;5099494;28;20502;-38
2022/02/12 09:28:57;;;;;;;4.03;2.40;;;3.30;99.90;;;;;;5099534;28;20422;-37
2022/02/12 09:31:23;;;;;;;22.47;3.53;;;3.40;99.90;;;;;;5099543;28;20445;-38
2022/02/12 09:33:58;;;;;;;3.33;2.30;;;3.50;99.90;;;;;;5099449;28;20443;-39
2022/02/12 09:36:27;;;;;;;5.13;3.10;;;3.60;99.90;;;;;;5098676;28;20411;-38
2022/02/12 09:38:54;;;;;;;4.23;2.70;;;3.80;99.90;;;;;;5099207;28;20427;-38
2022/02/12 09:41:27;;;;;;;6.03;3.30;;;3.90;99.90;;;;;;5099297;28;20407;-39
2022/02/12 09:43:54;;;;;;;7.47;4.00;;;4.10;99.90;;;;;;5099283;28;20400;-40
2022/02/12 09:46:47;;;;;;;10.13;2.30;;;4.30;99.90;;;;;;5098902;28;20454;-38
2022/02/12 09:49:15;;;;;;;4.23;2.60;;;4.60;99.90;;;;;;5096968;28;20427;-56
2022/02/12 09:51:42;;;;;;;5.40;3.10;;;4.80;99.90;;;;;;5096966;28;20419;-54
2022/02/12 09:54:12;;;;;;;10.83;3.13;;;5.10;99.90;;;;;;5097001;28;20426;-52
2022/02/12 09:56:41;;;;;;;8.80;2.20;;;5.60;99.90;;;;;;5097140;28;20449;-54
2022/02/12 09:59:10;;;;;;;4.00;2.17;;;7.00;99.90;;;;;;5097071;28;20428;-50
2022/02/12 10:01:39;;;;;;;13.03;3.07;;;8.60;99.90;;;;;;5095882;28;20432;-55
2022/02/12 10:04:16;;;;;;;6.50;2.70;;;10.00;99.90;;;;;;5095731;28;20708;-57
2022/02/12 10:06:44;;;;;;;5.27;2.60;;;10.80;99.90;;;;;;5096083;28;20445;-53
2022/02/12 10:09:11;;;;;;;6.27;2.40;;;11.70;99.90;;;;;;5096393;28;20443;-52
2022/02/12 10:11:46;;;;;;;4.60;2.20;;;12.40;98.40;;;;;;5096030;28;20451;-55
2022/02/12 10:14:14;;;;;;;12.27;3.60;;;12.90;94.90;;;;;;5096228;28;20474;-53
2022/02/12 10:16:52;;;;;;;7.83;3.40;;;13.60;91.40;;;;;;5096061;28;20448;-50
2022/02/12 10:19:28;;;;;;;9.13;3.43;;;13.80;86.70;;;;;;5096152;28;20441;-57
2022/02/12 10:22:10;;;;;;;6.00;2.70;;;13.80;84.10;;;;;;5095953;28;20440;-54
2022/02/12 10:24:50;;;;;;;7.13;2.60;;;14.00;83.60;;;;;;5096098;28;20462;-58
2022/02/12 10:27:17;;;;;;;3.33;2.40;;;14.00;78.40;;;;;;5095995;28;20491;-52
2022/02/12 10:29:45;;;;;;;6.50;3.40;;;14.10;77.50;;;;;;5095970;28;20417;-57
2022/02/12 10:32:12;;;;;;;6.53;3.33;;;14.40;78.10;;;;;;5096318;28;20461;-50
2022/02/12 10:34:43;;;;;;;8.70;4.80;;;14.50;75.00;;;;;;5096008;28;20459;-55
2022/02/12 10:37:12;;;;;;;5.20;3.33;;;14.30;73.70;;;;;;5096028;28;20429;-51
2022/02/12 10:39:50;;;;;;;11.73;4.67;;;14.40;74.10;;;;;;5096213;28;20480;-51
2022/02/12 10:42:18;;;;;;;6.83;3.40;;;14.70;74.70;;;;;;5095269;28;20482;-57
2022/02/12 10:44:45;;;;;;;9.97;3.20;;;14.90;68.70;;;;;;5096031;28;20443;-56
2022/02/12 10:47:13;;;;;;;5.10;2.67;;;14.70;69.70;;;;;;5095740;28;20445;-58
2022/02/12 10:49:42;;;;;;;4.77;2.80;;;14.70;67.90;;;;;;5099671;28;20481;-57
2022/02/12 10:52:08;;;;;;;6.50;4.37;;;14.70;68.50;;;;;;5099734;28;20471;-57
2022/02/12 10:54:43;;;;;;;3.63;2.73;;;14.70;70.10;;;;;;5099446;28;20440;-54
2022/02/12 10:57:10;;;;;;;7.23;2.33;;;14.70;67.90;;;;;;5099342;28;20464;-55
2022/02/12 10:59:42;;;;;;;5.47;2.60;;;14.60;67.30;;;;;;5099712;28;20430;-60
2022/02/12 11:02:10;;;;;;;7.87;3.03;;;14.20;68.70;;;;;;5099304;28;20496;-60
2022/02/12 11:04:41;;;;;;;4.90;2.60;;;13.90;70.20;;;;;;5099320;28;20507;-56
2022/02/12 11:07:15;;;;;;;4.37;2.20;;;13.60;70.20;;;;;;5099411;28;20464;-60
2022/02/12 11:09:44;;;;;;;5.73;2.43;;;13.60;72.00;;;;;;5099822;28;20463;-53
2022/02/12 11:12:11;;;;;;;8.63;3.10;;;13.40;71.00;;;;;;5099257;28;20507;-58
2022/02/12 11:14:39;;;;;;;8.17;3.53;;;13.20;71.90;;;;;;5099204;28;20448;-59
2022/02/12 11:17:11;;;;;;;6.53;3.57;;;13.00;72.30;;;;;;5099204;28;20479;-57
2022/02/12 11:19:41;;;;;;;14.50;7.97;;;12.80;73.20;;;;;;5098962;28;20534;-56
2022/02/12 11:22:10;;;;;;;11.30;3.83;;;12.80;75.00;;;;;;5098746;28;20451;-56
2022/02/12 11:24:39;;;;;;;4.17;2.30;;;12.70;75.50;;;;;;5098720;28;20447;-54
2022/02/12 11:27:26;;;;;;;9.10;2.90;;;12.40;73.80;;;;;;5098875;28;20468;-53
2022/02/12 11:29:54;;;;;;;9.53;3.57;;;11.90;74.50;;;;;;5099003;28;20450;-58
2022/02/12 11:32:23;;;;;;;3.23;2.30;;;11.60;77.10;;;;;;5099263;28;20473;-55
2022/02/12 11:35:23;;;;;;;4.63;2.70;;;11.20;78.60;;;;;;5098687;28;20481;-57
2022/02/12 11:37:50;;;;;;;5.67;2.60;;;10.80;78.90;;;;;;5098688;28;20474;-54
2022/02/12 11:40:20;;;;;;;6.47;2.80;;;10.20;80.30;;;;;;5098848;28;20426;-49
2022/02/12 11:42:49;;;;;;;5.27;2.03;;;9.80;83.70;;;;;;5098896;28;20439;-55
2022/02/12 11:45:25;;;;;;;4.40;2.10;;;9.60;86.40;;;;;;5097989;28;20476;-54
2022/02/12 11:48:18;;;;;;;5.20;2.53;;;9.20;85.40;;;;;;5098463;28;20418;-51
2022/02/12 11:50:51;;;;;;;8.63;2.40;;;8.90;88.60;;;;;;5099511;28;20434;-55
2022/02/12 11:53:46;;;;;;;6.00;1.50;;;8.80;90.50;;;;;;5098728;28;20467;-52
2022/02/12 11:56:46;;;;;;;3.43;1.70;;;8.70;88.20;;;;;;5063546;28;20437;-53
2022/02/12 11:59:13;;;;;;;4.97;2.30;;;8.50;86.30;;;;;;5097712;28;20461;-55
2022/02/12 12:01:51;;;;;;;4.93;1.50;;;8.40;88.70;;;;;;5099180;28;20472;-53
2022/02/12 12:04:21;;;;;;;4.40;1.80;;;8.20;85.30;;;;;;5098949;28;20474;-53
2022/02/12 12:07:12;;;;;;;6.03;2.33;;;8.10;88.10;;;;;;5098786;28;20463;-52
2022/02/12 12:10:00;;;;;;;4.60;1.30;;;7.90;86.10;;;;;;5098768;28;20466;-48
2022/02/12 12:12:27;;;;;;;4.73;2.13;;;7.70;82.60;;;;;;5099187;28;20531;-49
2022/02/12 12:15:15;;;;;;;6.17;2.90;;;7.50;86.50;;;;;;5099096;28;20473;-55
2022/02/12 12:17:42;;;;;;;2.87;1.17;;;7.40;87.60;;;;;;5099061;28;20415;-51
2022/02/12 12:20:10;;;;;;;3.73;1.90;;;7.40;89.10;;;;;;5098889;28;20465;-53
2022/02/12 12:22:41;;;;;;;2.40;1.53;;;7.30;88.20;;;;;;5099295;28;20449;-57
2022/02/12 12:25:09;;;;;;;4.03;1.90;;;7.20;89.70;;;;;;5098476;28;20431;-56
2022/02/12 12:27:35;;;;;;;3.70;1.57;;;7.10;90.50;;;;;;5098436;28;20484;-56
2022/02/12 12:32:58;;;;;;;2.53;1.13;;;7.10;92.20;;;;;;5098372;28;20407;-51
2022/02/12 12:35:25;;;;;;;2.47;1.00;;;7.10;91.50;;;;;;5098632;28;20431;-54
2022/02/12 12:37:55;;;;;;;3.47;1.23;;;7.00;91.70;;;;;;5098819;28;20449;-51
2022/02/12 12:40:30;;;;;;;4.00;1.80;;;6.90;91.40;;;;;;5098354;28;20477;-54
2022/02/12 12:43:00;;;;;;;3.50;1.30;;;6.90;91.00;;;;;;5098611;28;20489;-53
2022/02/12 12:45:28;;;;;;;3.20;1.60;;;6.90;91.80;;;;;;5098128;28;20465;-52
2022/02/12 12:47:56;;;;;;;3.20;1.80;;;7.00;92.10;;;;;;5098903;28;20431;-62
2022/02/12 12:50:23;;;;;;;3.37;1.30;;;7.00;91.60;;;;;;5099038;28;20460;-57
2022/02/12 12:53:02;;;;;;;2.70;1.50;;;7.00;91.50;;;;;;5098623;28;20493;-56
2022/02/12 12:55:35;;;;;;;3.80;1.40;;;7.00;91.40;;;;;;5098775;28;20433;-62
2022/02/12 12:58:11;;;;;;;11.40;2.90;;;6.90;91.60;;;;;;5098536;28;20420;-52
2022/02/12 13:00:38;;;;;;;1.67;1.10;;;6.80;92.20;;;;;;5098639;28;20419;-54
2022/02/12 13:03:05;;;;;;;2.20;0.90;;;6.80;92.40;;;;;;5098319;28;20427;-55
2022/02/12 13:05:33;;;;;;;1.47;0.93;;;6.90;92.60;;;;;;5097942;28;20464;-50
2022/02/12 13:08:06;;;;;;;1.73;0.90;;;6.90;91.80;;;;;;5097675;28;20466;-52
2022/02/12 13:10:34;;;;;;;3.00;1.67;;;6.90;92.20;;;;;;5098351;28;20424;-53
2022/02/12 13:13:12;;;;;;;6.90;1.30;;;6.80;92.40;;;;;;5098222;28;20440;-55